createdAt,value
2022-10-08T00:01:29.814Z,99.90
2022-10-08T00:03:57.885Z,99.90
2022-10-08T00:06:30.148Z,99.90
2022-10-08T00:09:02.404Z,99.90
2022-10-08T00:11:35.097Z,99.90
2022-10-08T00:14:03.852Z,99.90
2022-10-08T00:16:36.410Z,99.90
2022-10-08T00:19:12.545Z,99.90
2022-10-08T00:21:44.042Z,99.90
2022-10-08T00:24:17.917Z,99.90
2022-10-08T00:26:46.741Z,99.90
2022-10-08T00:29:18.185Z,99.90
2022-10-08T00:31:49.253Z,99.90
2022-10-08T00:34:22.242Z,99.90
2022-10-08T00:36:55.594Z,99.90
2022-10-08T00:39:25.250Z,99.90
2022-10-08T00:41:55.921Z,99.90
2022-10-08T00:44:51.370Z,99.90
2022-10-08T00:47:34.081Z,99.90
2022-10-08T00:50:29.862Z,99.90
2022-10-08T00:53:08.243Z,99.90
2022-10-08T00:55:43.121Z,99.90
2022-10-08T00:58:21.513Z,99.90
2022-10-08T01:00:50.356Z,99.90
2022-10-08T01:03:18.291Z,99.90
2022-10-08T01:06:30.275Z,99.90
2022-10-08T01:09:16.482Z,99.90
2022-10-08T01:12:18.169Z,99.90
2022-10-08T01:15:06.894Z,99.90
2022-10-08T01:17:48.860Z,99.90
2022-10-08T01:21:02.707Z,99.90
2022-10-08T01:24:07.179Z,99.70
2022-10-08T01:27:04.290Z,99.90
2022-10-08T01:29:44.815Z,99.90
2022-10-08T01:32:22.309Z,99.90
2022-10-08T01:35:16.847Z,99.90
2022-10-08T01:37:46.304Z,99.90
2022-10-08T01:40:27.361Z,99.90
2022-10-08T01:42:59.141Z,99.90
2022-10-08T01:45:43.912Z,99.90
2022-10-08T01:48:20.859Z,99.90
2022-10-08T01:50:48.551Z,99.90
2022-10-08T01:53:19.563Z,99.80
2022-10-08T01:55:53.184Z,99.90
2022-10-08T01:58:34.814Z,99.90
2022-10-08T02:01:18.677Z,99.80
2022-10-08T02:04:06.394Z,99.90
2022-10-08T02:06:39.333Z,99.90
2022-10-08T02:09:07.162Z,99.90
2022-10-08T02:11:35.963Z,99.90
2022-10-08T02:14:05.810Z,99.90
2022-10-08T02:16:36.805Z,99.90
2022-10-08T02:19:44.405Z,99.90
2022-10-08T02:22:18.638Z,99.90
2022-10-08T02:25:16.855Z,99.90
2022-10-08T02:28:33.046Z,99.90
2022-10-08T02:31:38.171Z,99.90
2022-10-08T02:34:22.172Z,99.90
2022-10-08T02:37:00.512Z,99.90
2022-10-08T02:39:33.929Z,99.90
2022-10-08T02:42:11.235Z,99.90
2022-10-08T02:45:00.461Z,99.90
2022-10-08T02:47:33.725Z,99.90
2022-10-08T02:50:09.001Z,99.90
2022-10-08T02:52:41.985Z,99.90
2022-10-08T02:55:29.892Z,99.90
2022-10-08T02:58:06.404Z,99.90
2022-10-08T03:00:50.500Z,99.90
2022-10-08T03:03:35.226Z,99.90
2022-10-08T03:06:08.585Z,99.90
2022-10-08T03:08:42.642Z,99.90
2022-10-08T03:11:12.130Z,99.90
2022-10-08T03:13:45.506Z,99.90
2022-10-08T03:16:18.228Z,99.90
2022-10-08T03:18:46.898Z,99.90
2022-10-08T03:21:16.091Z,99.90
2022-10-08T03:23:44.031Z,99.90
2022-10-08T03:26:11.845Z,99.90
2022-10-08T03:28:39.654Z,99.90
2022-10-08T03:31:07.739Z,99.90
2022-10-08T03:33:36.150Z,99.90
2022-10-08T03:36:04.361Z,99.90
2022-10-08T03:38:34.644Z,99.90
2022-10-08T03:41:02.808Z,99.90
2022-10-08T03:43:34.519Z,99.90
2022-10-08T03:46:03.390Z,99.90
2022-10-08T03:48:31.819Z,99.90
2022-10-08T03:51:03.241Z,99.90
2022-10-08T03:53:37.372Z,99.90
2022-10-08T03:56:10.877Z,99.90
2022-10-08T03:58:38.794Z,99.90
2022-10-08T04:01:17.496Z,99.90
2022-10-08T04:03:45.519Z,99.90
2022-10-08T04:06:14.339Z,99.90
2022-10-08T04:08:42.510Z,99.90
2022-10-08T04:11:15.372Z,99.90
2022-10-08T04:13:44.032Z,99.90
2022-10-08T04:16:18.025Z,99.90
2022-10-08T04:18:47.433Z,99.90
2022-10-08T04:21:18.429Z,99.90
2022-10-08T04:23:49.312Z,99.90
2022-10-08T04:26:17.671Z,99.90
2022-10-08T04:28:46.314Z,99.90
2022-10-08T04:31:18.885Z,99.90
2022-10-08T04:33:47.655Z,99.90
2022-10-08T04:36:22.275Z,99.90
2022-10-08T04:38:51.211Z,99.90
2022-10-08T04:41:22.449Z,99.90
2022-10-08T04:43:51.735Z,99.90
2022-10-08T04:46:22.194Z,99.90
2022-10-08T04:48:55.181Z,99.90
2022-10-08T04:51:25.632Z,99.90
2022-10-08T04:53:55.216Z,99.90
2022-10-08T04:56:27.155Z,99.90
2022-10-08T04:58:56.129Z,99.90
2022-10-08T05:01:25.702Z,99.90
2022-10-08T05:03:56.960Z,99.90
2022-10-08T05:06:28.662Z,99.90
2022-10-08T05:08:59.798Z,99.90
2022-10-08T05:11:29.180Z,99.90
2022-10-08T05:13:58.808Z,99.90
2022-10-08T05:16:27.560Z,99.90
2022-10-08T05:18:56.538Z,99.90
2022-10-08T05:21:29.915Z,99.90
2022-10-08T05:24:08.269Z,99.90
2022-10-08T05:29:30.218Z,99.90
2022-10-08T05:31:58.168Z,99.90
2022-10-08T05:34:26.211Z,99.90
2022-10-08T05:36:54.407Z,99.90
2022-10-08T05:39:22.181Z,99.90
2022-10-08T05:41:50.029Z,99.90
2022-10-08T05:44:17.838Z,99.90
2022-10-08T05:46:45.744Z,99.90
2022-10-08T05:49:20.754Z,99.90
2022-10-08T05:51:50.006Z,99.90
2022-10-08T05:54:19.034Z,99.90
2022-10-08T05:56:46.862Z,99.90
2022-10-08T05:59:22.026Z,99.90
2022-10-08T06:01:51.819Z,99.90
2022-10-08T06:04:19.807Z,99.90
2022-10-08T06:06:48.072Z,99.90
2022-10-08T06:09:19.271Z,99.90
2022-10-08T06:11:48.136Z,99.90
2022-10-08T06:14:17.160Z,99.90
2022-10-08T06:16:45.103Z,99.90
2022-10-08T06:19:13.426Z,99.90
2022-10-08T06:21:41.547Z,99.90
2022-10-08T06:24:12.300Z,99.90
2022-10-08T06:26:42.709Z,99.90
2022-10-08T06:29:17.751Z,99.90
2022-10-08T06:31:46.762Z,99.90
2022-10-08T06:34:15.671Z,99.90
2022-10-08T06:36:44.452Z,99.90
2022-10-08T06:39:15.037Z,99.90
2022-10-08T06:41:43.234Z,99.90
2022-10-08T06:44:13.944Z,99.90
2022-10-08T06:46:43.164Z,99.90
2022-10-08T06:49:11.758Z,99.90
2022-10-08T06:51:39.619Z,99.90
2022-10-08T06:54:08.636Z,99.90
2022-10-08T06:56:39.068Z,99.90
2022-10-08T06:59:07.748Z,99.90
2022-10-08T07:01:36.138Z,99.90
2022-10-08T07:04:05.707Z,99.90
2022-10-08T07:06:34.350Z,99.90
2022-10-08T07:09:03.094Z,99.90
2022-10-08T07:11:32.433Z,99.90
2022-10-08T07:14:01.306Z,99.90
2022-10-08T07:16:29.550Z,99.90
2022-10-08T07:19:00.966Z,99.90
2022-10-08T07:21:30.310Z,99.90
2022-10-08T07:24:01.378Z,99.90
2022-10-08T07:26:34.713Z,99.90
2022-10-08T07:29:13.172Z,99.90
2022-10-08T07:31:41.429Z,99.90
2022-10-08T07:34:13.163Z,99.60
2022-10-08T07:36:41.930Z,95.50
2022-10-08T07:39:15.994Z,98.30
2022-10-08T07:41:43.806Z,95.60
2022-10-08T07:44:12.899Z,90.20
2022-10-08T07:46:47.002Z,87.80
2022-10-08T07:49:16.782Z,86.20
2022-10-08T07:51:45.093Z,79.20
2022-10-08T07:54:18.547Z,83.70
2022-10-08T07:56:47.002Z,76.20
2022-10-08T07:59:15.101Z,76.00
2022-10-08T08:01:43.942Z,77.30
2022-10-08T08:04:12.527Z,73.50
2022-10-08T08:06:45.167Z,71.60
2022-10-08T08:09:14.453Z,68.50
2022-10-08T08:11:42.977Z,70.50
2022-10-08T08:14:11.139Z,70.60
2022-10-08T08:16:39.707Z,71.70
2022-10-08T08:19:08.240Z,70.30
2022-10-08T08:21:38.595Z,68.90
2022-10-08T08:24:14.044Z,69.80
2022-10-08T08:26:43.416Z,69.70
2022-10-08T08:29:18.961Z,71.00
2022-10-08T08:31:49.490Z,71.20
2022-10-08T08:34:24.441Z,71.30
2022-10-08T08:36:54.007Z,69.00
2022-10-08T08:39:28.002Z,69.60
2022-10-08T08:42:39.288Z,67.00
2022-10-08T08:45:45.773Z,65.30
2022-10-08T08:48:23.085Z,65.30
2022-10-08T08:50:53.636Z,66.90
2022-10-08T08:53:22.738Z,63.60
2022-10-08T08:55:55.565Z,65.70
2022-10-08T08:58:58.876Z,67.00
2022-10-08T09:01:42.469Z,65.70
2022-10-08T09:04:33.583Z,62.60
2022-10-08T09:07:08.571Z,64.10
2022-10-08T09:09:41.061Z,62.60
2022-10-08T09:12:38.079Z,61.40
2022-10-08T09:15:19.976Z,64.70
2022-10-08T09:17:52.892Z,64.00
2022-10-08T09:20:25.645Z,64.70
2022-10-08T09:22:57.095Z,64.50
2022-10-08T09:25:31.769Z,64.20
2022-10-08T09:28:06.324Z,64.00
2022-10-08T09:30:45.410Z,64.90
2022-10-08T09:33:24.335Z,64.60
2022-10-08T09:35:54.096Z,64.30
2022-10-08T09:38:49.335Z,64.90
2022-10-08T09:41:19.563Z,64.20
2022-10-08T09:44:18.764Z,61.30
2022-10-08T09:46:47.776Z,62.00
2022-10-08T09:49:31.512Z,63.40
2022-10-08T09:52:21.723Z,60.10
2022-10-08T09:54:59.188Z,61.30
2022-10-08T09:57:28.674Z,57.70
2022-10-08T10:00:05.963Z,57.50
2022-10-08T10:02:38.675Z,58.70
2022-10-08T10:05:21.556Z,58.00
2022-10-08T10:07:49.386Z,59.00
2022-10-08T10:10:48.636Z,58.80
2022-10-08T10:13:37.713Z,56.80
2022-10-08T10:16:32.631Z,58.50
2022-10-08T10:19:25.869Z,59.20
2022-10-08T10:22:15.154Z,55.50
2022-10-08T10:25:48.767Z,56.70
2022-10-08T10:28:50.915Z,55.60
2022-10-08T10:32:21.062Z,57.50
2022-10-08T10:35:21.067Z,56.90
2022-10-08T10:38:13.341Z,56.40
2022-10-08T10:41:04.133Z,57.00
2022-10-08T10:44:00.712Z,57.40
2022-10-08T10:46:34.328Z,57.50
2022-10-08T10:49:02.321Z,57.20
2022-10-08T10:51:49.904Z,56.70
2022-10-08T10:55:10.349Z,57.10
2022-10-08T10:58:30.049Z,55.20
2022-10-08T11:01:33.584Z,55.70
2022-10-08T11:04:20.199Z,55.90
2022-10-08T11:07:28.147Z,55.60
2022-10-08T11:10:22.581Z,56.30
2022-10-08T11:13:05.143Z,56.30
2022-10-08T11:15:52.572Z,57.00
2022-10-08T11:19:03.102Z,56.60
2022-10-08T11:21:46.506Z,57.30
2022-10-08T11:24:51.530Z,55.80
2022-10-08T11:27:52.366Z,56.60
2022-10-08T11:30:50.880Z,56.60
2022-10-08T11:33:19.554Z,56.50
2022-10-08T11:36:40.774Z,58.00
2022-10-08T11:39:21.196Z,58.20
2022-10-08T11:43:03.398Z,57.40
2022-10-08T11:45:40.250Z,56.50
2022-10-08T11:48:34.133Z,55.30
2022-10-08T11:51:19.819Z,56.30
2022-10-08T11:54:16.975Z,57.30
2022-10-08T11:56:49.602Z,57.00
2022-10-08T11:59:58.379Z,55.00
2022-10-08T12:02:39.118Z,55.70
2022-10-08T12:05:22.208Z,51.40
2022-10-08T12:07:56.949Z,49.60
2022-10-08T12:10:37.510Z,51.90
2022-10-08T12:13:27.687Z,52.00
2022-10-08T12:15:56.682Z,53.40
2022-10-08T12:18:29.319Z,54.10
2022-10-08T12:21:21.698Z,52.00
2022-10-08T12:23:49.699Z,52.30
2022-10-08T12:26:17.513Z,53.70
2022-10-08T12:28:51.519Z,53.20
2022-10-08T12:31:40.107Z,51.10
2022-10-08T12:34:19.762Z,50.30
2022-10-08T12:37:06.487Z,51.10
2022-10-08T12:39:47.292Z,51.70
2022-10-08T12:42:23.078Z,53.30
2022-10-08T12:45:29.224Z,54.70
2022-10-08T12:48:12.174Z,53.60
2022-10-08T12:50:49.617Z,52.50
2022-10-08T12:53:18.738Z,53.30
2022-10-08T12:55:55.238Z,54.50
2022-10-08T12:58:29.230Z,53.90
2022-10-08T13:01:04.354Z,53.50
2022-10-08T13:03:32.514Z,53.80
2022-10-08T13:06:29.369Z,54.70
2022-10-08T13:09:00.951Z,50.10
2022-10-08T13:11:29.078Z,50.70
2022-10-08T13:13:56.885Z,51.90
2022-10-08T13:16:26.963Z,52.30
2022-10-08T13:18:58.789Z,52.40
2022-10-08T13:21:34.302Z,53.90
2022-10-08T13:24:12.163Z,55.10
2022-10-08T13:26:49.793Z,55.30
2022-10-08T13:29:37.981Z,55.80
2022-10-08T13:32:14.495Z,56.80
2022-10-08T13:35:00.198Z,57.70
2022-10-08T13:37:37.742Z,57.90
2022-10-08T13:40:11.377Z,57.60
2022-10-08T13:42:44.547Z,56.60
2022-10-08T13:45:28.904Z,57.10
2022-10-08T13:47:57.389Z,57.10
2022-10-08T13:50:25.414Z,55.80
2022-10-08T13:52:57.281Z,54.00
2022-10-08T13:55:36.669Z,52.90
2022-10-08T13:58:07.436Z,52.10
2022-10-08T14:00:39.887Z,52.70
2022-10-08T14:03:08.848Z,53.90
2022-10-08T14:05:40.572Z,53.60
2022-10-08T14:08:23.386Z,55.30
2022-10-08T14:10:57.572Z,54.30
2022-10-08T14:13:26.075Z,54.40
2022-10-08T14:15:54.313Z,55.20
2022-10-08T14:18:22.560Z,55.30
2022-10-08T14:20:51.973Z,55.20
2022-10-08T14:23:22.204Z,54.60
2022-10-08T14:25:51.530Z,54.90
2022-10-08T14:28:19.521Z,54.70
2022-10-08T14:30:47.384Z,54.80
2022-10-08T14:33:15.147Z,53.90
2022-10-08T14:35:43.077Z,53.90
2022-10-08T14:38:10.929Z,54.80
2022-10-08T14:40:39.090Z,53.90
2022-10-08T14:43:06.851Z,53.00
2022-10-08T14:45:34.674Z,52.70
2022-10-08T14:48:02.706Z,52.20
2022-10-08T14:50:30.532Z,52.70
2022-10-08T14:52:58.319Z,53.60
2022-10-08T14:55:26.455Z,51.50
2022-10-08T14:57:54.251Z,51.40
2022-10-08T15:00:22.081Z,52.60
2022-10-08T15:02:50.212Z,52.60
2022-10-08T15:05:18.240Z,52.70
2022-10-08T15:07:46.361Z,53.60
2022-10-08T15:10:14.584Z,55.00
2022-10-08T15:12:42.339Z,55.00
2022-10-08T15:15:10.600Z,55.00
2022-10-08T15:17:38.418Z,55.50
2022-10-08T15:20:07.037Z,55.40
2022-10-08T15:22:34.885Z,56.20
2022-10-08T15:25:02.758Z,55.70
2022-10-08T15:27:30.624Z,56.30
2022-10-08T15:29:58.408Z,56.70
2022-10-08T15:32:30.245Z,57.00
2022-10-08T15:34:58.591Z,57.50
2022-10-08T15:37:26.399Z,57.80
2022-10-08T15:39:54.174Z,58.00
2022-10-08T15:42:22.367Z,57.90
2022-10-08T15:44:50.678Z,57.60
2022-10-08T15:47:18.462Z,58.10
2022-10-08T15:49:46.346Z,58.30
2022-10-08T15:52:20.983Z,57.90
2022-10-08T15:54:48.871Z,58.30
2022-10-08T15:57:18.897Z,58.80
2022-10-08T15:59:47.112Z,59.10
2022-10-08T16:02:17.828Z,59.60
2022-10-08T16:04:47.905Z,60.60
2022-10-08T16:07:17.182Z,60.70
2022-10-08T16:09:45.180Z,61.20
2022-10-08T16:12:13.733Z,61.60
2022-10-08T16:14:41.605Z,61.90
2022-10-08T16:17:10.074Z,62.10
2022-10-08T16:19:38.782Z,62.40
2022-10-08T16:22:08.594Z,62.50
2022-10-08T16:24:36.748Z,62.40
2022-10-08T16:27:04.773Z,62.40
2022-10-08T16:29:32.682Z,62.50
2022-10-08T16:32:00.549Z,63.20
2022-10-08T16:34:28.760Z,63.20
2022-10-08T16:36:59.322Z,63.30
2022-10-08T16:39:27.880Z,63.30
2022-10-08T16:41:55.722Z,63.70
2022-10-08T16:44:23.583Z,63.50
2022-10-08T16:46:52.574Z,63.50
2022-10-08T16:49:29.167Z,63.60
2022-10-08T16:52:01.324Z,63.80
2022-10-08T16:54:29.477Z,63.60
2022-10-08T16:56:58.225Z,63.60
2022-10-08T16:59:28.896Z,64.00
2022-10-08T17:01:59.208Z,64.20
2022-10-08T17:04:28.935Z,64.50
2022-10-08T17:06:56.837Z,64.70
2022-10-08T17:09:24.648Z,64.70
2022-10-08T17:11:52.655Z,65.20
2022-10-08T17:14:20.501Z,66.10
2022-10-08T17:16:49.840Z,67.00
2022-10-08T17:19:17.942Z,67.70
2022-10-08T17:21:46.013Z,68.30
2022-10-08T17:24:14.060Z,69.00
2022-10-08T17:26:42.257Z,69.60
2022-10-08T17:29:12.871Z,70.10
2022-10-08T17:31:42.355Z,70.10
2022-10-08T17:34:11.814Z,70.70
2022-10-08T17:36:43.987Z,70.80
2022-10-08T17:39:14.284Z,71.20
2022-10-08T17:41:43.850Z,71.50
2022-10-08T17:44:12.211Z,71.40
2022-10-08T17:46:45.447Z,72.00
2022-10-08T17:49:16.714Z,72.60
2022-10-08T17:51:45.790Z,73.20
2022-10-08T17:54:20.472Z,73.60
2022-10-08T17:56:49.215Z,74.00
2022-10-08T17:59:20.135Z,74.00
2022-10-08T18:01:48.523Z,74.40
2022-10-08T18:04:18.999Z,74.20
2022-10-08T18:06:48.097Z,74.40
2022-10-08T18:09:21.104Z,74.70
2022-10-08T18:11:53.230Z,75.30
2022-10-08T18:14:22.339Z,75.30
2022-10-08T18:16:50.274Z,75.30
2022-10-08T18:19:19.027Z,75.70
2022-10-08T18:21:46.897Z,76.00
2022-10-08T18:24:15.807Z,75.90
2022-10-08T18:26:44.169Z,76.00
2022-10-08T18:29:14.160Z,76.00
2022-10-08T18:31:44.443Z,76.20
2022-10-08T18:34:17.004Z,76.50
2022-10-08T18:36:46.043Z,76.90
2022-10-08T18:39:18.067Z,77.10
2022-10-08T18:41:49.303Z,77.30
2022-10-08T18:44:23.849Z,77.40
2022-10-08T18:46:52.839Z,77.50
2022-10-08T18:49:30.422Z,77.80
2022-10-08T18:51:59.463Z,78.30
2022-10-08T18:54:27.312Z,78.50
2022-10-08T18:56:56.816Z,78.80
2022-10-08T18:59:24.669Z,78.90
2022-10-08T19:01:55.651Z,79.30
2022-10-08T19:04:26.477Z,79.30
2022-10-08T19:06:54.212Z,80.80
2022-10-08T19:09:22.320Z,80.20
2022-10-08T19:11:53.417Z,80.30
2022-10-08T19:14:23.185Z,80.20
2022-10-08T19:16:51.969Z,80.30
2022-10-08T19:19:23.699Z,80.50
2022-10-08T19:21:54.135Z,80.60
2022-10-08T19:24:24.830Z,80.90
2022-10-08T19:26:54.867Z,81.20
2022-10-08T19:29:29.505Z,81.10
2022-10-08T19:31:58.095Z,81.60
2022-10-08T19:34:27.631Z,81.80
2022-10-08T19:36:55.563Z,81.70
2022-10-08T19:39:27.818Z,81.70
2022-10-08T19:41:55.617Z,81.90
2022-10-08T19:44:24.069Z,81.70
2022-10-08T19:46:52.407Z,81.90
2022-10-08T19:49:21.554Z,82.10
2022-10-08T19:51:49.491Z,81.90
2022-10-08T19:54:18.307Z,82.10
2022-10-08T19:56:46.332Z,82.60
2022-10-08T19:59:14.652Z,82.60
2022-10-08T20:01:43.558Z,82.30
2022-10-08T20:04:12.180Z,82.40
2022-10-08T20:06:41.985Z,82.40
2022-10-08T20:09:12.415Z,82.20
2022-10-08T20:11:42.580Z,82.80
2022-10-08T20:14:11.480Z,82.80
2022-10-08T20:16:41.797Z,83.10
2022-10-08T20:19:21.040Z,83.40
2022-10-08T20:21:50.475Z,83.40
2022-10-08T20:24:21.166Z,83.10
2022-10-08T20:26:49.734Z,83.20
2022-10-08T20:29:25.151Z,83.40
2022-10-08T20:31:55.780Z,83.60
2022-10-08T20:34:28.716Z,83.70
2022-10-08T20:36:57.999Z,83.70
2022-10-08T20:39:25.799Z,83.70
2022-10-08T20:41:53.841Z,83.70
2022-10-08T20:44:21.789Z,84.00
2022-10-08T20:46:51.247Z,84.10
2022-10-08T20:49:19.895Z,84.40
2022-10-08T20:51:47.962Z,84.80
2022-10-08T20:54:17.817Z,85.10
2022-10-08T20:56:46.486Z,85.70
2022-10-08T20:59:18.617Z,85.80
2022-10-08T21:01:49.175Z,86.00
2022-10-08T21:04:17.694Z,85.90
2022-10-08T21:06:49.617Z,85.70
2022-10-08T21:09:20.774Z,85.50
2022-10-08T21:11:48.746Z,85.60
2022-10-08T21:14:22.637Z,85.60
2022-10-08T21:16:50.575Z,85.40
2022-10-08T21:19:22.148Z,85.10
2022-10-08T21:21:50.319Z,85.60
2022-10-08T21:24:18.377Z,85.60
2022-10-08T21:26:46.525Z,85.40
2022-10-08T21:29:15.164Z,85.20
2022-10-08T21:31:43.442Z,85.40
2022-10-08T21:34:13.115Z,85.10
2022-10-08T21:36:41.964Z,85.10
2022-10-08T21:39:16.824Z,84.70
2022-10-08T21:41:45.553Z,84.70
2022-10-08T21:44:14.007Z,84.70
2022-10-08T21:46:42.847Z,84.70
2022-10-08T21:49:22.676Z,84.80
2022-10-08T21:51:50.468Z,84.80
2022-10-08T21:54:18.712Z,84.70
2022-10-08T21:56:46.553Z,84.60
2022-10-08T21:59:16.251Z,84.30
2022-10-08T22:01:47.848Z,84.30
2022-10-08T22:04:24.949Z,84.30
2022-10-08T22:06:57.765Z,84.60
2022-10-08T22:09:31.354Z,85.00
2022-10-08T22:12:00.747Z,84.90
2022-10-08T22:14:29.459Z,84.80
2022-10-08T22:16:57.367Z,85.40
2022-10-08T22:19:25.229Z,85.10
2022-10-08T22:21:53.106Z,84.60
2022-10-08T22:24:20.999Z,84.70
2022-10-08T22:26:49.007Z,84.90
2022-10-08T22:29:17.113Z,84.60
2022-10-08T22:31:45.534Z,84.30
2022-10-08T22:34:13.673Z,83.80
2022-10-08T22:36:44.750Z,84.00
2022-10-08T22:39:13.201Z,84.40
2022-10-08T22:41:41.044Z,84.20
2022-10-08T22:44:08.861Z,84.30
2022-10-08T22:46:39.479Z,84.00
2022-10-08T22:49:10.622Z,84.60
2022-10-08T22:51:38.959Z,84.60
2022-10-08T22:54:07.058Z,84.30
2022-10-08T22:56:35.190Z,84.00
2022-10-08T22:59:03.120Z,84.30
2022-10-08T23:01:32.028Z,84.90
2022-10-08T23:04:00.009Z,85.00
2022-10-08T23:06:36.889Z,84.70
2022-10-08T23:09:10.844Z,85.40
2022-10-08T23:11:39.197Z,85.50
2022-10-08T23:14:07.031Z,85.90
2022-10-08T23:16:35.239Z,85.60
2022-10-08T23:19:10.255Z,85.70
2022-10-08T23:21:38.758Z,85.60
2022-10-08T23:24:06.928Z,85.50
2022-10-08T23:26:36.287Z,85.40
2022-10-08T23:29:05.050Z,85.60
2022-10-08T23:31:36.592Z,86.00
2022-10-08T23:34:05.852Z,86.40
2022-10-08T23:36:38.282Z,87.00
2022-10-08T23:39:07.441Z,87.30
2022-10-08T23:41:37.127Z,87.50
2022-10-08T23:44:05.597Z,87.40
2022-10-08T23:46:33.739Z,88.00
2022-10-08T23:49:01.887Z,88.60
2022-10-08T23:51:32.095Z,89.30
2022-10-08T23:54:01.474Z,90.00
2022-10-08T23:56:30.192Z,90.60
2022-10-08T23:58:58.799Z,90.40
